METAR Data
IDs: Format: Raw Decoded Include TAF

Data at: 1621 UTC 21 Sep 2018

KTUS 211553Z 00000KT 10SM CLR 24/18 A3009 RMK AO2 SLP147 T02440178
KTUS 211453Z 14005KT 10SM CLR 22/18 A3009 RMK AO2 SLP147 T02220178 53015
KTUS 211353Z 15005KT 10SM CLR 21/17 A3007 RMK AO2 SLP142 T02060172
KTUS 211253Z 17004KT 10SM CLR 20/17 A3005 RMK AO2 SLP134 T02000172
KTUS 211153Z 15005KT 10SM CLR 20/18 A3004 RMK AO2 SLP129 T02000178 10239 20200 53009
KTUS 211053Z 15006KT 10SM CLR 21/18 A3003 RMK AO2 SLP123 T02060178
KTUS 210953Z 15005KT 10SM CLR 21/18 A3002 RMK AO2 SLP122 T02060183
KTUS 210853Z 15004KT 10SM CLR 22/18 A3001 RMK AO2 SLP118 T02170183 53004
KTUS 210753Z 17004KT 10SM CLR 22/19 A3001 RMK AO2 SLP117 T02220189
KTUS 210653Z 18006KT 10SM CLR 23/19 A3000 RMK AO2 SLP116 T02280194 403110194
KTUS 210553Z 18004KT 10SM CLR 23/20 A3000 RMK AO2 SLP115 T02330200 10311 20233 51012
KTUS 210453Z 22004KT 10SM CLR 24/19 A3000 RMK AO2 SLP117 T02390189
KTUS 210353Z 31005KT 10SM CLR 26/18 A2999 RMK AO2 SLP113 T02560178
KTUS 210253Z 33004KT 10SM CLR 27/17 A2996 RMK AO2 SLP105 T02670172 53019
KTUS 210153Z 30007KT 10SM CLR 28/17 A2994 RMK AO2 SLP096 T02780172
KTUS 210053Z 31007KT 10SM CLR 29/16 A2992 RMK AO2 SLP087 T02940161
KTUS 202353Z 35006KT 10SM CLR 31/16 A2990 RMK AO2 SLP080 T03110161 10311 20256 56007
KTUS 202253Z 33007KT 10SM CLR 31/16 A2990 RMK AO2 SLP081 T03110156
KTUS 202153Z 34008KT 10SM CLR 30/16 A2990 RMK AO2 SLP082 T03000161
KTUS 202055Z 34008KT 10SM CLR 30/16 A2992 RMK AO2 T03000161
KTUS 202053Z 10SM CLR 30/16 A2992 RMK AO2 SLP087 T03000161 58011
KTUS 201953Z 31006KT 10SM CLR 29/17 A2993 RMK AO2 SLP092 T02890167
KTUS 201853Z 30006KT 10SM SCT034 27/19 A2995 RMK AO2 SLP099 T02720189
KTUS 201753Z 31006KT 10SM CLR 26/19 A2996 RMK AO2 SLP102 T02610194 10261 20194 50004
KTUS 201725Z VRB04KT 10SM FEW001 SCT020 24/19 A2996 RMK AO2 T02440189
KTUS 201653Z 25004KT 10SM SCT016 23/19 A2996 RMK AO2 SLP107 T02330189
KTUS 201553Z 24003KT 10SM FEW007 SCT012 22/20 A2995 RMK AO2 SLP105 T02220200
KTUS 201518Z 28004KT 10SM SCT001 21/20 A2995 RMK AO2 T02060200
KTUS 201513Z 28003KT 10SM BKN001 21/20 A2994 RMK AO2 T02060200
KTUS 201453Z 00000KT 1/2SM FG OVC001 20/20 A2994 RMK AO2 TWR VIS 3/4 SLP103 T02000200 51018
KTUS 201445Z 00000KT 1/2SM FG VV001 20/20 A2994 RMK AO2 TWR VIS 3/4 T02000200
KTUS 201440Z 00000KT 1SM BR VV001 20/20 A2994 RMK AO2 T02000200
KTUS 201409Z 00000KT M1/4SM FG VV001 19/19 A2993 RMK AO2 T01940194
KTUS 201401Z 00000KT 1/2SM FG VV001 19/19 A2993 RMK AO2 T01940194
KTUS 201400Z 3/4SM BR VV001 19/19 A2993 RMK AO2 T01940194
KTUS 201358Z 1 3/4SM BR FEW002 20/19 A2993 RMK AO2 T02000194
KTUS 201353Z 00000KT 9SM CLR 20/19 A2993 RMK AO2 SLP098 T02000194
KTUS 201307Z 26003KT 10SM SCT017 20/19 A2990 RMK AO2 T02000194
KTUS 201253Z 26003KT 10SM BKN017 20/19 A2990 RMK AO2 SLP090 T02000194
KTUS 201239Z 00000KT 9SM BKN017 20/19 A2990 RMK AO2 T02000194
KTUS 201153Z AUTO 25003KT 10SM CLR 20/19 A2988 RMK AO2 SLP084 70076 T02000194 10211 20200 53006
KTUS 201053Z 00000KT 10SM CLR 21/20 A2987 RMK AO2 SLP078 T02110200
KTUS 200953Z 00000KT 10SM CLR 21/19 A2987 RMK AO2 SLP076 T02060194
KTUS 200853Z 00000KT 10SM CLR 21/19 A2987 RMK AO2 SLP073 T02110194 53000
KTUS 200753Z 00000KT 10SM CLR 21/19 A2986 RMK AO2 SLP071 T02110194
KTUS 200653Z 00000KT 10SM CLR 21/19 A2986 RMK AO2 SLP070 T02110194 402830206
KTUS 200553Z 14003KT 10SM CLR 21/19 A2986 RMK AO2 SLP073 60046 T02110194 10211 20206 58007
KTUS 200453Z 19006KT 10SM SCT110 21/19 A2987 RMK AO2 RAE43 SLP076 P0002 T02060194